createdAt,value
2018-02-14T00:04:45.091Z,6.73
2018-02-14T00:10:49.590Z,8.13
2018-02-14T00:16:54.108Z,7.50
2018-02-14T00:23:00.119Z,8.30
2018-02-14T00:29:04.645Z,7.20
2018-02-14T00:35:09.131Z,7.97
2018-02-14T00:41:13.639Z,7.53
2018-02-14T00:47:18.240Z,8.30
2018-02-14T00:53:22.918Z,7.43
2018-02-14T00:59:27.530Z,8.70
2018-02-14T01:05:32.388Z,8.40
2018-02-14T01:11:37.007Z,8.27
2018-02-14T01:17:41.663Z,8.10
2018-02-14T01:23:46.904Z,7.80
2018-02-14T01:29:52.318Z,8.37
2018-02-14T01:35:56.884Z,7.93
2018-02-14T01:42:01.508Z,8.83
2018-02-14T01:48:06.055Z,8.63
2018-02-14T01:54:10.539Z,8.60
2018-02-14T02:00:15.098Z,9.07
2018-02-14T02:06:19.794Z,9.07
2018-02-14T02:12:24.674Z,8.50
2018-02-14T02:18:29.228Z,9.03
2018-02-14T02:24:33.798Z,9.60
2018-02-14T02:30:38.451Z,8.90
2018-02-14T02:36:43.157Z,8.83
2018-02-14T02:42:47.847Z,9.73
2018-02-14T02:48:53.609Z,9.80
2018-02-14T02:54:58.207Z,9.30
2018-02-14T03:01:03.554Z,8.63
2018-02-14T03:07:08.046Z,9.90
2018-02-14T03:13:12.565Z,10.03
2018-02-14T03:19:17.077Z,8.73
2018-02-14T03:25:22.342Z,8.37
2018-02-14T03:31:26.914Z,7.97
2018-02-14T03:37:31.513Z,9.17
2018-02-14T03:43:36.008Z,9.90
2018-02-14T03:49:40.737Z,9.50
2018-02-14T03:55:46.230Z,9.17
2018-02-14T04:01:52.365Z,8.80
2018-02-14T04:07:56.977Z,9.40
2018-02-14T04:14:01.864Z,10.00
2018-02-14T04:20:07.093Z,10.40
2018-02-14T04:26:11.928Z,9.60
2018-02-14T04:32:17.168Z,11.33
2018-02-14T04:38:21.899Z,9.73
2018-02-14T04:44:27.200Z,11.00
2018-02-14T04:50:32.465Z,10.97
2018-02-14T04:56:36.939Z,9.10
2018-02-14T05:02:41.656Z,9.20
2018-02-14T05:08:47.226Z,9.70
2018-02-14T05:14:51.782Z,8.87
2018-02-14T05:20:56.418Z,9.80
2018-02-14T05:27:01.790Z,9.07
2018-02-14T05:33:06.353Z,8.60
2018-02-14T05:39:11.116Z,8.70
2018-02-14T05:45:15.632Z,9.80
2018-02-14T05:51:20.713Z,9.50
2018-02-14T05:57:25.522Z,9.03
2018-02-14T06:03:30.017Z,8.20
2018-02-14T06:09:35.318Z,8.47
2018-02-14T06:15:40.683Z,9.30
2018-02-14T06:21:46.027Z,8.90
2018-02-14T06:27:51.038Z,8.53
2018-02-14T06:33:55.710Z,8.13
2018-02-14T06:40:00.208Z,8.57
2018-02-14T06:46:04.706Z,7.40
2018-02-14T06:52:09.220Z,8.53
2018-02-14T06:58:13.920Z,9.40
2018-02-14T07:04:18.869Z,10.07
2018-02-14T07:10:24.422Z,9.43
2018-02-14T07:16:29.350Z,8.53
2018-02-14T07:22:33.902Z,9.30
2018-02-14T07:28:38.379Z,10.80
2018-02-14T07:34:42.882Z,10.67
2018-02-14T07:40:48.138Z,10.00
2018-02-14T07:46:52.692Z,10.30
2018-02-14T07:52:57.274Z,9.47
2018-02-14T07:59:02.655Z,10.17
2018-02-14T08:05:07.173Z,10.73
2018-02-14T08:11:11.690Z,11.77
2018-02-14T08:17:16.217Z,10.13
2018-02-14T08:23:21.683Z,11.47
2018-02-14T08:29:27.247Z,10.20
2018-02-14T08:35:31.738Z,10.03
2018-02-14T08:41:36.272Z,9.57
2018-02-14T08:47:41.035Z,10.07
2018-02-14T08:53:45.574Z,9.40
2018-02-14T08:59:51.584Z,10.60
2018-02-14T09:05:56.191Z,10.33
2018-02-14T09:12:00.798Z,11.97
2018-02-14T09:18:05.427Z,12.17
2018-02-14T09:24:09.929Z,11.30
2018-02-14T09:30:15.242Z,12.30
2018-02-14T09:36:20.986Z,12.73
2018-02-14T09:42:25.662Z,11.37
2018-02-14T09:48:30.301Z,12.53
2018-02-14T09:54:35.545Z,12.10
2018-02-14T10:00:40.831Z,10.53
2018-02-14T10:06:45.375Z,10.50
2018-02-14T10:12:51.406Z,10.77
2018-02-14T10:18:56.151Z,10.93
2018-02-14T10:25:01.400Z,10.77
2018-02-14T10:31:05.865Z,11.20
2018-02-14T10:37:10.379Z,12.40
2018-02-14T10:43:14.855Z,12.20
2018-02-14T10:49:20.165Z,11.00
2018-02-14T10:55:25.019Z,12.00
2018-02-14T11:01:35.012Z,11.23
2018-02-14T11:07:39.507Z,11.30
2018-02-14T11:13:44.028Z,13.67
2018-02-14T11:19:49.522Z,11.20
2018-02-14T11:25:55.154Z,12.03
2018-02-14T11:31:59.669Z,12.00
2018-02-14T11:38:04.142Z,12.40
2018-02-14T11:44:08.618Z,11.30
2018-02-14T11:50:13.232Z,12.47
2018-02-14T11:56:18.129Z,11.90
2018-02-14T12:02:23.376Z,11.80
2018-02-14T12:08:27.839Z,11.27
2018-02-14T12:14:32.306Z,10.80
2018-02-14T12:20:36.780Z,9.57
2018-02-14T12:26:41.294Z,9.80
2018-02-14T12:32:45.764Z,9.93
2018-02-14T12:38:51.639Z,10.83
2018-02-14T12:44:56.243Z,8.87
2018-02-14T12:51:00.706Z,11.80
2018-02-14T12:57:05.470Z,10.37
2018-02-14T13:03:09.937Z,9.90
2018-02-14T13:09:15.192Z,9.33
2018-02-14T13:15:20.476Z,14.40
2018-02-14T13:21:25.174Z,10.30
2018-02-14T13:27:29.718Z,10.53
2018-02-14T13:33:34.220Z,10.47
2018-02-14T13:39:39.032Z,24.50
2018-02-14T13:45:43.561Z,9.67
2018-02-14T13:51:48.019Z,12.33
2018-02-14T13:57:52.663Z,10.70
2018-02-14T14:03:57.172Z,11.33
2018-02-14T14:10:02.441Z,11.23
2018-02-14T14:16:07.914Z,15.77
2018-02-14T14:22:12.398Z,12.27
2018-02-14T14:28:16.929Z,10.37
2018-02-14T14:34:26.403Z,11.83
2018-02-14T14:40:31.660Z,10.27
2018-02-14T14:46:36.126Z,9.60
2018-02-14T14:52:40.566Z,9.37
2018-02-14T14:58:46.026Z,9.90
2018-02-14T15:04:50.550Z,9.23
2018-02-14T15:10:55.336Z,9.07
2018-02-14T15:17:00.579Z,10.57
2018-02-14T15:23:05.050Z,10.80
2018-02-14T15:29:09.730Z,12.33
2018-02-14T15:35:14.231Z,11.30
2018-02-14T15:41:18.831Z,9.07
2018-02-14T15:47:24.188Z,9.50
2018-02-14T15:53:28.835Z,9.60
2018-02-14T15:59:33.383Z,9.07
2018-02-14T16:05:37.858Z,9.40
2018-02-14T16:11:42.359Z,9.80
2018-02-14T16:17:46.872Z,10.33
2018-02-14T16:23:51.729Z,10.80
2018-02-14T16:29:56.230Z,9.90
2018-02-14T16:36:00.705Z,10.30
2018-02-14T16:42:05.192Z,10.80
2018-02-14T16:48:09.710Z,11.00
2018-02-14T16:54:14.208Z,12.37
2018-02-14T17:00:19.820Z,10.63
2018-02-14T17:06:24.667Z,11.80
2018-02-14T17:12:29.292Z,11.87
2018-02-14T17:18:33.936Z,11.50
2018-02-14T17:24:39.208Z,12.43
2018-02-14T17:30:43.711Z,11.10
2018-02-14T17:36:48.237Z,11.63
2018-02-14T17:42:54.319Z,11.23
2018-02-14T17:48:59.565Z,10.80
2018-02-14T17:55:04.066Z,11.43
2018-02-14T18:01:08.862Z,11.53
2018-02-14T18:07:13.367Z,13.77
2018-02-14T18:13:17.883Z,12.37
2018-02-14T18:19:23.614Z,12.90
2018-02-14T18:25:28.264Z,11.80
2018-02-14T18:31:32.865Z,12.50
2018-02-14T18:37:37.370Z,12.50
2018-02-14T18:43:42.655Z,13.13
2018-02-14T18:49:47.145Z,13.40
2018-02-14T18:55:52.426Z,14.47
2018-02-14T19:01:57.353Z,12.87
2018-02-14T19:08:01.916Z,13.77
2018-02-14T19:14:06.422Z,14.20
2018-02-14T19:20:10.939Z,15.77
2018-02-14T19:26:15.492Z,14.63
2018-02-14T19:32:21.022Z,16.23
2018-02-14T19:38:26.299Z,15.80
2018-02-14T19:44:31.014Z,15.10
2018-02-14T19:50:35.518Z,16.10
2018-02-14T19:56:40.050Z,16.00
2018-02-14T20:02:44.547Z,20.27
2018-02-14T20:08:50.024Z,19.80
2018-02-14T20:14:55.184Z,16.63
2018-02-14T20:20:59.669Z,17.33
2018-02-14T20:27:04.141Z,15.87
2018-02-14T20:33:08.755Z,16.27
2018-02-14T20:39:13.407Z,19.00
2018-02-14T20:45:17.933Z,16.80
2018-02-14T20:51:22.515Z,17.70
2018-02-14T20:57:27.061Z,16.63
2018-02-14T21:03:32.589Z,15.20
2018-02-14T21:09:37.199Z,14.63
2018-02-14T21:15:41.689Z,15.50
2018-02-14T21:21:46.255Z,16.37
2018-02-14T21:27:52.266Z,14.33
2018-02-14T21:33:56.877Z,15.50
2018-02-14T21:40:01.389Z,14.30
2018-02-14T21:46:06.709Z,15.90
2018-02-14T21:52:11.243Z,15.30
2018-02-14T21:58:15.740Z,18.10
2018-02-14T22:04:21.191Z,15.37
2018-02-14T22:10:25.791Z,16.63
2018-02-14T22:16:30.309Z,15.97
2018-02-14T22:22:34.827Z,15.17
2018-02-14T22:28:39.563Z,15.33
2018-02-14T22:34:44.177Z,14.80
2018-02-14T22:40:49.468Z,17.90
2018-02-14T22:46:54.049Z,16.97
2018-02-14T22:52:59.304Z,16.87
2018-02-14T22:59:03.816Z,17.07
2018-02-14T23:05:09.070Z,15.87
2018-02-14T23:11:13.586Z,17.03
2018-02-14T23:17:19.007Z,15.10
2018-02-14T23:23:23.496Z,17.07
2018-02-14T23:29:28.083Z,15.93
2018-02-14T23:35:32.995Z,17.60
2018-02-14T23:41:37.585Z,17.50
2018-02-14T23:47:42.112Z,17.80
2018-02-14T23:53:46.631Z,16.50
2018-02-14T23:59:51.644Z,17.27
